Time;durP1;ratioP1;P1;durP2;ratioP2;P2;SDS_P1;SDS_P2;PMS_P1;PMS_P2;Temp;Humidity;BMP_temperature;BMP_pressure;BME280_temperature;BME280_humidity;BME280_pressure;Samples;Min_cycle;Max_cycle;Signal;HPM_P1;HPM_P2
2022/04/26 03:37:12;;;;;;;33.70;28.42;;;11.00;99.90;12.10;97683.00;;;;4796112;29;88603;-61
2022/04/26 03:39:42;;;;;;;29.67;26.45;;;11.10;99.90;12.20;97681.00;;;;4806778;29;87576;-61
2022/04/26 03:42:08;;;;;;;31.95;25.85;;;11.20;99.90;12.30;97689.00;;;;4791858;29;87303;-61
2022/04/26 03:44:35;;;;;;;27.83;24.83;;;11.30;99.90;12.40;97687.00;;;;4803143;29;88540;-61
2022/04/26 03:47:02;;;;;;;31.00;25.10;;;11.40;99.90;12.60;97694.00;;;;4800597;29;87227;-62
2022/04/26 03:49:28;;;;;;;29.13;24.05;;;11.50;99.90;12.50;97685.00;;;;4800705;29;87395;-62
2022/04/26 03:51:55;;;;;;;27.40;23.05;;;11.60;99.90;12.50;97690.00;;;;4797285;29;87324;-61
2022/04/26 03:54:22;;;;;;;34.65;26.23;;;11.50;99.90;12.50;97694.00;;;;4798072;29;87762;-61
2022/04/26 03:56:49;;;;;;;37.38;27.40;;;11.50;99.90;12.50;97692.00;;;;4801293;29;88518;-61
2022/04/26 03:59:16;;;;;;;32.10;26.05;;;11.50;99.90;12.40;97690.00;;;;4798947;29;87169;-62
2022/04/26 04:01:42;;;;;;;36.80;26.77;;;11.40;99.90;12.40;97695.00;;;;4802023;29;86604;-62
2022/04/26 04:04:08;;;;;;;36.97;26.45;;;11.40;99.90;12.50;97694.00;;;;4802513;29;88327;-62
2022/04/26 04:06:34;;;;;;;29.38;25.85;;;11.40;99.90;12.50;97700.00;;;;4804022;29;88487;-61
2022/04/26 04:09:01;;;;;;;29.67;25.75;;;11.50;99.90;12.40;97692.00;;;;4805680;29;88862;-61
2022/04/26 04:11:27;;;;;;;32.85;25.98;;;11.40;99.90;12.50;97706.00;;;;4797549;29;87476;-62
2022/04/26 04:13:53;;;;;;;31.63;25.35;;;11.50;99.90;12.50;97694.00;;;;4802085;29;87497;-61
2022/04/26 04:16:20;;;;;;;29.05;26.15;;;11.50;99.90;12.50;97686.00;;;;4800375;29;88700;-61
2022/04/26 04:21:31;;;;;;;29.40;24.20;;;11.60;99.90;12.70;97696.00;;;;4806265;29;87524;-61
2022/04/26 04:23:58;;;;;;;31.25;24.60;;;11.70;99.90;12.90;97699.00;;;;4804839;29;87820;-61
2022/04/26 04:26:24;;;;;;;30.48;24.95;;;11.90;99.90;13.00;97694.00;;;;4798683;29;87324;-61
2022/04/26 04:28:51;;;;;;;31.17;25.33;;;11.90;99.90;13.00;97697.00;;;;4791843;29;87537;-62
2022/04/26 04:31:17;;;;;;;30.95;26.10;;;12.00;99.90;13.00;97700.00;;;;4796644;29;87534;-61
2022/04/26 04:33:45;;;;;;;31.63;25.35;;;12.00;99.90;13.00;97693.00;;;;4802747;29;89562;-62
2022/04/26 04:36:12;;;;;;;30.95;24.45;;;12.00;99.90;13.10;97682.00;;;;4805758;29;90259;-62
2022/04/26 04:38:38;;;;;;;26.23;23.45;;;12.10;99.90;13.20;97694.00;;;;4801148;29;87531;-62
2022/04/26 04:41:08;;;;;;;27.13;22.65;;;12.20;99.90;13.20;97692.00;;;;4803483;29;87310;-62
2022/04/26 04:43:34;;;;;;;29.52;23.27;;;12.20;99.90;13.10;97703.00;;;;4797369;29;87585;-61
2022/04/26 04:46:01;;;;;;;27.85;23.42;;;12.10;99.90;13.00;97708.00;;;;4807652;29;88476;-62
2022/04/26 04:48:28;;;;;;;26.60;23.80;;;12.00;99.90;13.00;97707.00;;;;4824092;29;87094;-61
2022/04/26 04:50:54;;;;;;;28.17;25.27;;;11.90;99.90;12.80;97704.00;;;;4805267;29;86960;-62
2022/04/26 04:53:21;;;;;;;30.77;24.60;;;11.80;99.90;12.70;97712.00;;;;4798077;29;87710;-63
2022/04/26 04:55:48;;;;;;;31.02;24.85;;;11.70;99.90;12.70;97702.00;;;;4791223;29;87385;-63
2022/04/26 04:58:14;;;;;;;28.58;23.95;;;11.70;99.90;12.70;97701.00;;;;4797553;29;87831;-62
2022/04/26 05:00:40;;;;;;;25.35;22.75;;;11.70;99.90;12.90;97693.00;;;;4792735;29;87497;-62
2022/04/26 05:03:06;;;;;;;24.45;21.13;;;11.90;99.90;13.40;97685.00;;;;4799100;29;87436;-62
2022/04/26 05:05:32;;;;;;;21.23;18.95;;;12.20;99.90;14.00;97681.00;;;;4795617;29;87511;-61
2022/04/26 05:07:59;;;;;;;19.67;17.65;;;12.70;99.90;14.40;97688.00;;;;4802448;29;87302;-61
2022/04/26 05:10:25;;;;;;;20.67;18.58;;;13.10;99.90;14.50;97691.00;;;;4796595;29;87090;-62
2022/04/26 05:12:53;;;;;;;23.33;18.95;;;13.30;99.90;14.60;97691.00;;;;4801226;29;87694;-61
2022/04/26 05:15:19;;;;;;;22.42;17.75;;;13.40;99.90;14.70;97684.00;;;;4798908;29;86870;-63
2022/04/26 05:17:46;;;;;;;18.33;16.33;;;13.40;99.90;14.80;97686.00;;;;4796671;29;87399;-61
2022/04/26 05:20:12;;;;;;;21.15;17.27;;;13.50;99.90;14.80;97694.00;;;;4796899;29;87275;-62
2022/04/26 05:25:25;;;;;;;18.40;16.45;;;13.40;99.90;14.60;97680.00;;;;4796244;29;88188;-61
2022/04/26 05:27:51;;;;;;;17.23;14.93;;;13.50;99.90;14.80;97674.00;;;;4802725;29;87085;-61
2022/04/26 05:30:17;;;;;;;16.98;14.88;;;13.60;99.90;14.70;97671.00;;;;4803559;29;87153;-62
2022/04/26 05:32:44;;;;;;;17.35;14.98;;;13.70;99.90;14.60;97665.00;;;;4799659;29;87929;-61
2022/04/26 05:35:11;;;;;;;17.85;13.38;;;13.60;99.90;14.70;97670.00;;;;4793822;29;87883;-62
2022/04/26 05:37:37;;;;;;;16.13;14.13;;;13.60;99.90;14.70;97658.00;;;;4805208;29;87283;-62
2022/04/26 05:40:04;;;;;;;14.25;11.93;;;13.70;99.90;14.80;97663.00;;;;4799063;29;86319;-61
2022/04/26 05:42:35;;;;;;;14.35;12.85;;;13.80;99.90;14.80;97669.00;;;;4807795;29;88804;-61
2022/04/26 05:45:01;;;;;;;12.90;11.60;;;13.90;99.90;14.90;97670.00;;;;4792888;29;88069;-62
2022/04/26 05:47:30;;;;;;;13.88;11.77;;;14.00;99.90;14.70;97658.00;;;;4790021;29;88474;-61
2022/04/26 05:49:57;;;;;;;13.63;12.10;;;13.80;99.90;14.60;97658.00;;;;4793217;29;87495;-61
2022/04/26 05:52:24;;;;;;;15.45;13.20;;;13.70;99.90;14.60;97663.00;;;;4796974;29;88134;-61
2022/04/26 05:54:51;;;;;;;14.27;12.85;;;13.60;99.90;14.70;97667.00;;;;4805365;29;87413;-61
2022/04/26 05:57:18;;;;;;;15.68;11.75;;;13.70;99.90;14.80;97660.00;;;;4801299;29;87018;-62
2022/04/26 05:59:44;;;;;;;15.10;10.85;;;13.80;99.90;14.80;97658.00;;;;4807420;29;87686;-61
2022/04/26 06:02:11;;;;;;;14.07;10.75;;;13.90;99.90;14.80;97669.00;;;;4798351;29;88429;-61
2022/04/26 06:04:38;;;;;;;12.70;10.43;;;13.90;99.90;14.80;97665.00;;;;4791304;29;87163;-60
2022/04/26 06:07:04;;;;;;;15.43;12.02;;;13.90;99.90;14.80;97666.00;;;;4800218;29;87539;-62
2022/04/26 06:09:31;;;;;;;14.48;9.95;;;13.90;99.90;15.00;97671.00;;;;4792521;29;88123;-62
2022/04/26 06:11:58;;;;;;;14.20;11.70;;;14.00;99.90;15.00;97667.00;;;;4799030;29;88782;-62
2022/04/26 06:14:24;;;;;;;13.40;10.65;;;14.10;99.90;15.10;97662.00;;;;4801513;29;89326;-61
2022/04/26 06:16:51;;;;;;;15.15;11.07;;;14.10;99.90;15.10;97670.00;;;;4794135;29;87136;-62
2022/04/26 06:19:17;;;;;;;12.38;10.55;;;14.20;99.90;15.20;97669.00;;;;4790598;29;87506;-62
2022/04/26 06:21:43;;;;;;;15.48;11.68;;;14.30;99.90;15.50;97679.00;;;;4798584;29;87841;-62
2022/04/26 06:24:09;;;;;;;13.93;11.15;;;14.50;99.90;15.50;97684.00;;;;4803444;29;87709;-61
2022/04/26 06:26:35;;;;;;;10.95;9.43;;;14.40;99.90;15.30;97677.00;;;;4810788;29;86983;-62
2022/04/26 06:29:02;;;;;;;9.70;8.00;;;14.30;99.90;15.10;97681.00;;;;4788342;29;86999;-62
2022/04/26 06:31:28;;;;;;;12.40;9.90;;;14.10;99.90;15.00;97697.00;;;;4797318;29;88720;-62
2022/04/26 06:33:54;;;;;;;15.57;9.70;;;13.90;99.90;14.80;97696.00;;;;4798034;29;87473;-62
2022/04/26 06:36:20;;;;;;;17.55;10.30;;;13.80;99.90;14.70;97700.00;;;;4795192;29;88051;-61
2022/04/26 06:38:46;;;;;;;11.85;9.55;;;13.70;99.90;14.70;97696.00;;;;4799467;29;87585;-61
2022/04/26 06:41:12;;;;;;;14.25;9.57;;;13.70;99.90;14.80;97707.00;;;;4797565;29;88113;-61
2022/04/26 06:43:39;;;;;;;13.00;9.70;;;13.80;99.90;14.80;97704.00;;;;4799396;29;87337;-61
2022/04/26 06:46:05;;;;;;;13.65;9.65;;;13.80;99.90;15.00;97701.00;;;;4806588;29;86924;-61
2022/04/26 06:48:31;;;;;;;15.65;10.07;;;13.90;99.90;15.30;97706.00;;;;4800230;29;87255;-61
2022/04/26 06:50:58;;;;;;;13.20;10.10;;;14.30;99.90;15.60;97694.00;;;;4792559;29;87941;-62
2022/04/26 06:53:24;;;;;;;9.95;8.20;;;14.60;99.90;15.90;97704.00;;;;4800698;29;87388;-62
2022/04/26 06:55:50;;;;;;;8.52;7.50;;;15.00;99.90;16.30;97700.00;;;;4807455;29;87081;-61
2022/04/26 06:58:17;;;;;;;12.90;7.72;;;15.40;99.90;16.70;97700.00;;;;4800952;29;86869;-62
2022/04/26 07:00:45;;;;;;;10.30;7.25;;;15.80;99.90;17.00;97712.00;;;;4805263;29;88489;-62
2022/04/26 07:03:11;;;;;;;9.02;7.35;;;16.10;99.90;17.40;97705.00;;;;4802532;29;89346;-61
2022/04/26 07:05:37;;;;;;;12.05;7.93;;;16.40;99.90;17.60;97703.00;;;;4803436;29;87565;-62
2022/04/26 07:08:04;;;;;;;10.82;7.60;;;16.50;99.90;17.70;97705.00;;;;4799854;29;87560;-62
2022/04/26 07:10:30;;;;;;;11.25;8.13;;;16.60;99.90;17.60;97702.00;;;;4804294;29;87793;-62
2022/04/26 07:12:57;;;;;;;16.98;7.78;;;16.50;99.90;17.60;97700.00;;;;4799973;29;90746;-62
2022/04/26 07:15:24;;;;;;;15.10;7.05;;;16.50;99.90;17.50;97712.00;;;;4802522;29;87862;-63
2022/04/26 07:17:50;;;;;;;10.27;6.47;;;16.30;99.90;17.40;97715.00;;;;4797835;29;86260;-61
2022/04/26 07:20:16;;;;;;;17.88;6.63;;;16.30;99.90;17.30;97709.00;;;;4803597;29;87803;-61
2022/04/26 07:22:42;;;;;;;10.27;6.60;;;16.10;99.90;17.40;97718.00;;;;4800822;29;88861;-61
2022/04/26 07:25:12;;;;;;;11.45;7.45;;;16.30;99.90;17.50;97715.00;;;;4806469;29;88330;-62
2022/04/26 07:27:40;;;;;;;12.32;6.38;;;16.40;99.90;17.60;97716.00;;;;4797805;29;87130;-61
2022/04/26 07:30:07;;;;;;;8.77;6.05;;;16.40;99.90;17.60;97716.00;;;;4804132;29;88776;-62
2022/04/26 07:35:18;;;;;;;9.90;5.88;;;16.60;99.90;17.80;97712.00;;;;4805073;29;87125;-62
2022/04/26 07:37:44;;;;;;;8.48;5.68;;;16.80;99.90;17.90;97712.00;;;;4796486;29;86984;-61
2022/04/26 07:40:11;;;;;;;11.73;4.97;;;16.90;99.90;18.00;97716.00;;;;4792757;29;88564;-61
2022/04/26 07:42:37;;;;;;;11.00;5.28;;;17.00;99.90;18.10;97712.00;;;;4806223;29;87316;-62
2022/04/26 07:45:05;;;;;;;11.55;5.20;;;17.00;99.90;18.10;97713.00;;;;4802554;29;86950;-62
2022/04/26 07:47:31;;;;;;;8.55;4.65;;;17.10;99.90;18.00;97709.00;;;;4808066;29;87217;-62
2022/04/26 07:50:03;;;;;;;10.68;5.65;;;17.00;99.90;17.90;97710.00;;;;4807067;29;88548;-62
2022/04/26 07:52:29;;;;;;;11.95;4.40;;;16.80;99.90;17.80;97708.00;;;;4803378;29;88150;-62
2022/04/26 07:54:56;;;;;;;10.23;5.20;;;16.80;99.90;17.70;97713.00;;;;4795930;29;87405;-61
2022/04/26 07:57:22;;;;;;;5.95;3.35;;;16.70;99.90;17.70;97711.00;;;;4803214;29;87044;-61
2022/04/26 07:59:49;;;;;;;12.80;3.70;;;16.70;99.90;17.70;97717.00;;;;4809209;29;88982;-61
2022/04/26 08:02:15;;;;;;;21.27;5.68;;;16.70;99.90;17.70;97720.00;;;;4802907;29;87350;-61
2022/04/26 08:04:42;;;;;;;12.35;3.70;;;16.60;99.90;17.80;97714.00;;;;4799294;29;87489;-61
2022/04/26 08:07:08;;;;;;;11.85;3.58;;;16.70;99.90;17.70;97723.00;;;;4794304;29;86209;-61
2022/04/26 08:09:38;;;;;;;7.60;4.00;;;16.70;99.90;17.80;97723.00;;;;4799691;29;87763;-61
2022/04/26 08:12:05;;;;;;;8.38;3.80;;;16.80;99.90;17.80;97714.00;;;;4801285;29;89073;-61
2022/04/26 08:14:31;;;;;;;8.40;3.88;;;16.70;99.90;17.70;97722.00;;;;4796859;29;88375;-60
2022/04/26 08:16:57;;;;;;;7.93;4.30;;;16.70;99.90;17.50;97718.00;;;;4798679;29;88235;-62
2022/04/26 08:19:24;;;;;;;13.18;4.50;;;16.50;99.90;17.30;97718.00;;;;4801998;29;89675;-61
2022/04/26 08:21:50;;;;;;;9.95;5.10;;;16.40;99.90;17.20;97712.00;;;;4805506;29;87330;-62
2022/04/26 08:29:46;;;;;;;11.23;5.05;;;16.30;99.90;17.50;97715.00;;;;4804088;29;87712;-62
2022/04/26 08:32:13;;;;;;;8.82;4.47;;;16.40;99.90;17.60;97719.00;;;;4803033;29;87099;-61
2022/04/26 08:34:41;;;;;;;8.10;5.10;;;16.40;99.90;17.50;97720.00;;;;4801394;29;87163;-61
2022/04/26 08:37:08;;;;;;;12.73;4.70;;;16.30;99.90;17.50;97710.00;;;;4800320;29;87325;-61
2022/04/26 08:39:35;;;;;;;7.22;4.68;;;16.40;99.90;17.60;97720.00;;;;4793888;29;89597;-62
2022/04/26 08:42:04;;;;;;;5.70;3.85;;;16.50;99.90;17.70;97720.00;;;;4801905;29;88185;-62
2022/04/26 08:44:31;;;;;;;7.30;4.40;;;16.50;99.90;17.80;97716.00;;;;4798976;29;87052;-62
2022/04/26 08:52:45;;;;;;;11.00;5.00;;;17.20;99.90;18.10;97716.00;;;;4799040;29;87478;-62
2022/04/26 08:55:11;;;;;;;9.40;4.22;;;16.90;99.90;18.00;97708.00;;;;4807495;29;87407;-62
2022/04/26 08:57:38;;;;;;;7.68;4.85;;;16.90;99.90;18.00;97706.00;;;;4802619;29;86500;-63
2022/04/26 09:00:06;;;;;;;9.23;4.15;;;16.70;99.90;18.00;97707.00;;;;4809697;29;88676;-62
2022/04/26 09:02:32;;;;;;;14.23;4.60;;;16.70;99.90;17.90;97708.00;;;;4801413;29;88404;-62
2022/04/26 09:05:10;;;;;;;10.15;4.10;;;16.70;99.90;18.00;97699.00;;;;4792380;29;88225;-63
2022/04/26 09:07:37;;;;;;;7.90;3.97;;;16.80;99.90;18.10;97703.00;;;;4808642;29;87014;-62
2022/04/26 09:10:11;;;;;;;5.55;4.10;;;16.90;99.90;18.00;97711.00;;;;4802503;29;87743;-61
2022/04/26 09:13:09;;;;;;;7.70;4.32;;;16.90;99.90;17.90;97704.00;;;;4798388;29;87332;-62
2022/04/26 09:15:47;;;;;;;9.93;4.63;;;16.80;99.90;17.80;97711.00;;;;4791346;29;87387;-62
2022/04/26 09:18:30;;;;;;;11.07;3.88;;;16.60;99.90;17.60;97713.00;;;;4791450;29;87420;-64
2022/04/26 09:20:58;;;;;;;12.77;4.60;;;16.40;99.90;17.60;97709.00;;;;4807544;29;89070;-61
2022/04/26 09:23:29;;;;;;;9.90;4.35;;;16.40;99.90;17.70;97721.00;;;;4797229;29;87452;-62
2022/04/26 09:26:07;;;;;;;8.52;4.68;;;16.60;99.90;17.70;97719.00;;;;4812528;29;86980;-62
2022/04/26 09:28:37;;;;;;;5.65;3.88;;;16.70;99.90;17.70;97716.00;;;;4793214;29;87187;-62
2022/04/26 09:31:26;;;;;;;8.15;4.32;;;16.70;99.90;17.90;97710.00;;;;4803590;29;87932;-63
2022/04/26 09:33:56;;;;;;;7.15;4.13;;;16.80;99.90;18.00;97709.00;;;;4796606;29;88199;-63
2022/04/26 09:36:35;;;;;;;11.27;4.30;;;17.00;99.90;18.00;97706.00;;;;4804413;29;86948;-62
2022/04/26 09:39:04;;;;;;;6.45;3.88;;;17.00;99.90;18.10;97713.00;;;;4799950;29;87055;-62
2022/04/26 09:41:33;;;;;;;8.45;3.92;;;17.00;99.90;18.00;97709.00;;;;4796476;29;87509;-62
2022/04/26 09:44:06;;;;;;;7.93;4.28;;;17.00;99.90;18.10;97709.00;;;;4802333;29;87341;-62
2022/04/26 09:46:43;;;;;;;8.00;4.20;;;17.10;99.90;18.10;97708.00;;;;4792464;29;87013;-62
2022/04/26 09:49:17;;;;;;;14.68;4.60;;;17.00;99.90;18.20;97713.00;;;;4791303;29;86306;-62
2022/04/26 09:51:46;;;;;;;6.22;3.55;;;17.10;99.90;18.30;97708.00;;;;4798223;29;87824;-62
2022/04/26 09:54:12;;;;;;;5.13;3.90;;;17.10;99.90;18.30;97708.00;;;;4797231;29;88215;-62
2022/04/26 09:56:39;;;;;;;12.80;4.30;;;17.10;99.90;18.30;97713.00;;;;4794458;29;88686;-63
2022/04/26 09:59:06;;;;;;;7.60;4.18;;;17.10;99.90;18.20;97705.00;;;;4794313;29;87034;-62
2022/04/26 10:01:47;;;;;;;6.80;4.03;;;17.10;99.90;18.20;97718.00;;;;4795752;29;88611;-61
2022/04/26 10:04:17;;;;;;;10.57;4.03;;;17.10;99.90;18.20;97711.00;;;;4776263;29;87376;-63
2022/04/26 10:06:47;;;;;;;17.33;5.00;;;17.10;99.90;18.20;97724.00;;;;4799858;29;87073;-61
2022/04/26 10:09:13;;;;;;;9.35;4.15;;;17.10;99.90;18.20;97723.00;;;;4800126;29;87422;-62
2022/04/26 10:11:39;;;;;;;12.25;4.03;;;17.10;99.90;18.30;97728.00;;;;4799141;29;87840;-62
2022/04/26 10:14:08;;;;;;;8.77;3.63;;;17.20;99.90;18.20;97728.00;;;;4803532;29;87342;-62
2022/04/26 10:16:34;;;;;;;9.68;4.13;;;17.10;99.90;18.20;97727.00;;;;4799662;29;87536;-62
2022/04/26 10:19:09;;;;;;;8.20;4.32;;;17.10;99.90;18.10;97723.00;;;;4795428;29;87499;-62
2022/04/26 10:21:38;;;;;;;12.02;4.15;;;17.00;99.90;18.00;97736.00;;;;4791516;29;89629;-63
2022/04/26 10:24:21;;;;;;;6.43;4.28;;;17.00;99.90;18.00;97728.00;;;;4803957;29;88409;-62
2022/04/26 10:26:48;;;;;;;6.88;3.78;;;16.90;99.90;17.90;97722.00;;;;4800042;29;87289;-62
2022/04/26 10:29:17;;;;;;;12.32;3.83;;;16.90;99.90;18.00;97727.00;;;;4800720;29;87433;-62
2022/04/26 10:31:50;;;;;;;10.73;4.13;;;17.00;99.90;18.00;97729.00;;;;4799653;29;88171;-62
2022/04/26 10:34:31;;;;;;;8.90;3.40;;;17.00;99.90;18.00;97731.00;;;;4796196;29;87415;-62
2022/04/26 10:37:22;;;;;;;;;;;17.00;99.90;18.10;97727.00;;;;4786986;29;87141;-62
2022/04/26 10:40:02;;;;;;;9.00;3.70;;;17.00;99.90;18.00;97727.00;;;;4792138;29;86898;-60
2022/04/26 10:42:35;;;;;;;9.00;3.80;;;16.90;99.90;18.00;97721.00;;;;4800102;29;87656;-60
2022/04/26 10:45:11;;;;;;;9.52;3.85;;;16.80;99.90;18.20;97732.00;;;;4805817;29;87311;-59
2022/04/26 10:47:40;;;;;;;8.25;3.47;;;17.10;99.90;18.30;97735.00;;;;4804235;29;88042;-59
2022/04/26 10:50:08;;;;;;;9.15;3.53;;;17.20;99.90;18.40;97736.00;;;;4795144;29;87373;-60
2022/04/26 10:52:40;;;;;;;11.15;3.70;;;17.30;99.90;18.50;97735.00;;;;4800795;29;89150;-58
2022/04/26 10:55:10;;;;;;;8.50;3.80;;;17.40;99.90;18.40;97735.00;;;;4808014;29;88453;-62
2022/04/26 10:57:45;;;;;;;9.93;3.35;;;17.30;99.90;18.20;97743.00;;;;4803665;29;87678;-61
2022/04/26 11:00:22;;;;;;;7.50;3.65;;;17.10;99.90;17.90;97725.00;;;;4811524;29;87556;-62
2022/04/26 11:02:50;;;;;;;6.82;3.05;;;16.90;99.90;17.60;97733.00;;;;4800307;29;87224;-61
2022/04/26 11:05:18;;;;;;;5.45;3.42;;;16.50;99.90;17.40;97731.00;;;;4795469;29;88821;-59
2022/04/26 11:07:47;;;;;;;9.27;3.40;;;16.30;99.90;17.30;97743.00;;;;4811318;29;87409;-58
2022/04/26 11:10:19;;;;;;;9.27;3.47;;;16.20;99.90;17.20;97739.00;;;;4799203;29;87882;-60
2022/04/26 11:12:45;;;;;;;8.38;3.63;;;16.20;99.90;17.10;97743.00;;;;4800136;29;88738;-60
2022/04/26 11:15:14;;;;;;;4.72;3.28;;;16.10;99.90;17.00;97738.00;;;;4803784;29;88442;-60
2022/04/26 11:17:42;;;;;;;12.57;3.55;;;16.00;99.90;16.80;97735.00;;;;4797228;29;87021;-60
2022/04/26 11:20:35;;;;;;;16.23;4.78;;;15.80;99.90;16.90;97733.00;;;;4808779;29;87381;-59
2022/04/26 11:28:00;;;;;;;10.35;4.03;;;15.90;99.90;17.00;97742.00;;;;4804562;29;87622;-59
2022/04/26 11:28:32;;;;;;;5.55;2.97;;;16.10;99.90;17.30;97740.00;;;;4806818;29;87009;-58
2022/04/26 11:30:59;;;;;;;4.85;3.10;;;16.30;99.90;17.50;97732.00;;;;4798317;29;86242;-60
2022/04/26 11:33:28;;;;;;;7.30;3.33;;;16.40;99.90;17.70;97736.00;;;;4802988;29;88685;-59
2022/04/26 11:36:01;;;;;;;7.15;3.28;;;16.60;99.90;17.70;97744.00;;;;4806417;29;89014;-60
2022/04/26 11:38:28;;;;;;;13.43;3.80;;;16.60;99.90;17.80;97735.00;;;;4796082;29;87994;-59
2022/04/26 11:41:00;;;;;;;6.78;3.30;;;16.60;99.90;17.80;97731.00;;;;4800063;29;87434;-59
2022/04/26 11:43:33;;;;;;;7.35;3.58;;;16.60;99.90;17.70;97730.00;;;;4808890;29;88755;-59
2022/04/26 11:46:00;;;;;;;7.60;3.42;;;16.60;99.90;17.70;97726.00;;;;4797483;29;87844;-60
2022/04/26 11:48:33;;;;;;;12.15;3.95;;;16.60;99.90;17.70;97729.00;;;;4801533;29;87203;-60
2022/04/26 11:51:01;;;;;;;8.70;3.10;;;16.60;99.90;17.60;97728.00;;;;4798264;29;87057;-60
2022/04/26 11:53:30;;;;;;;5.93;3.42;;;16.60;99.90;17.60;97731.00;;;;4800360;29;88836;-59
2022/04/26 11:56:04;;;;;;;10.70;4.10;;;16.50;99.90;17.50;97727.00;;;;4810861;29;88828;-59
2022/04/26 11:58:35;;;;;;;9.05;3.45;;;16.50;99.90;17.40;97726.00;;;;4802915;29;87149;-59
2022/04/26 12:01:10;;;;;;;8.98;3.70;;;16.40;99.90;17.50;97717.00;;;;4808086;29;86915;-59
2022/04/26 12:03:44;;;;;;;4.55;3.22;;;16.50;99.90;17.60;97712.00;;;;4794955;29;89370;-60
2022/04/26 12:06:13;;;;;;;9.88;3.88;;;16.50;99.90;17.60;97716.00;;;;4814450;29;87643;-59
2022/04/26 12:08:43;;;;;;;7.10;3.70;;;16.50;99.90;17.50;97714.00;;;;4798326;29;87451;-58
2022/04/26 12:11:28;;;;;;;9.18;3.75;;;16.40;99.90;17.60;97706.00;;;;4799852;29;87047;-60
2022/04/26 12:14:08;;;;;;;6.03;3.80;;;16.50;99.90;17.70;97705.00;;;;4796277;29;88817;-60
2022/04/26 12:16:57;;;;;;;8.00;3.95;;;16.70;99.90;18.00;97706.00;;;;4796889;29;88160;-59
2022/04/26 12:19:37;;;;;;;8.48;3.20;;;16.90;99.90;18.00;97702.00;;;;4801574;29;87257;-59
2022/04/26 12:22:05;;;;;;;7.00;3.50;;;16.90;99.90;18.00;97707.00;;;;4808094;29;86383;-61
2022/04/26 12:24:33;;;;;;;11.70;3.53;;;16.90;99.90;17.90;97706.00;;;;4799110;29;87689;-58
2022/04/26 12:27:22;;;;;;;5.32;3.17;;;16.70;99.90;18.00;97701.00;;;;4799465;29;87625;-59
2022/04/26 12:29:51;;;;;;;7.45;3.53;;;16.80;99.90;17.70;97729.00;;;;4797531;29;88279;-59
2022/04/26 12:32:20;;;;;;;6.85;3.78;;;16.50;99.90;17.60;97702.00;;;;4806493;29;87061;-59
2022/04/26 12:34:51;;;;;;;6.13;3.22;;;16.50;99.90;17.50;97708.00;;;;4792751;29;88607;-60
2022/04/26 12:37:22;;;;;;;12.23;4.20;;;16.40;99.90;17.40;97715.00;;;;4792055;29;87832;-60
2022/04/26 12:39:58;;;;;;;11.50;4.45;;;16.20;99.90;17.30;97708.00;;;;4798962;29;87425;-60
2022/04/26 12:42:27;;;;;;;6.55;3.13;;;16.20;99.90;17.30;97717.00;;;;4799136;29;87391;-60
2022/04/26 12:45:10;;;;;;;5.65;3.33;;;16.20;99.90;17.10;97716.00;;;;4802358;29;87685;-58
2022/04/26 12:50:35;;;;;;;7.90;3.53;;;16.00;99.90;17.10;97720.00;;;;4798507;29;87426;-60
2022/04/26 12:53:08;;;;;;;5.57;3.63;;;15.90;99.90;17.10;97728.00;;;;4791610;29;87243;-58
2022/04/26 12:55:40;;;;;;;6.85;3.30;;;16.00;99.90;17.20;97702.00;;;;4808223;29;88549;-58
2022/04/26 12:58:13;;;;;;;9.57;3.65;;;16.10;99.90;17.40;97721.00;;;;4799837;29;89453;-60
2022/04/26 13:00:50;;;;;;;7.85;3.85;;;16.20;99.90;17.30;97717.00;;;;4808902;29;86967;-60
2022/04/26 13:03:19;;;;;;;6.78;3.90;;;16.30;99.90;17.30;97718.00;;;;4798208;29;87414;-60
2022/04/26 13:05:51;;;;;;;7.28;3.65;;;16.20;99.90;17.20;97714.00;;;;4807420;29;88846;-59
2022/04/26 13:08:20;;;;;;;6.78;3.45;;;16.00;99.90;17.10;97731.00;;;;4785506;29;87781;-59
2022/04/26 13:10:48;;;;;;;18.17;3.97;;;15.90;99.90;17.40;97724.00;;;;4796430;29;87031;-59
2022/04/26 13:13:15;;;;;;;8.40;3.20;;;16.20;99.90;17.40;97718.00;;;;4799444;29;87158;-58
2022/04/26 13:15:42;;;;;;;6.32;3.15;;;16.20;99.90;17.30;97716.00;;;;4802683;29;87559;-58
2022/04/26 13:18:10;;;;;;;6.57;2.70;;;16.10;99.90;17.30;97721.00;;;;4798355;29;88521;-60
2022/04/26 13:20:37;;;;;;;7.32;2.92;;;16.00;99.90;17.30;97719.00;;;;4805867;29;88905;-60
2022/04/26 13:23:03;;;;;;;7.38;3.90;;;16.10;99.90;17.40;97707.00;;;;4803667;29;87001;-57
2022/04/26 13:25:30;;;;;;;6.90;3.08;;;16.20;99.90;17.50;97718.00;;;;4805623;29;88655;-61
2022/04/26 13:27:57;;;;;;;8.23;3.00;;;16.30;99.90;17.50;97723.00;;;;4796739;29;87447;-59
2022/04/26 13:30:24;;;;;;;7.05;3.38;;;16.30;99.90;17.60;97717.00;;;;4799613;29;87693;-60
2022/04/26 13:32:52;;;;;;;5.80;2.90;;;16.40;99.90;17.50;97705.00;;;;4799290;29;87976;-59
2022/04/26 13:35:18;;;;;;;6.18;3.08;;;16.40;99.90;17.40;97715.00;;;;4800623;29;88149;-57
2022/04/26 13:37:46;;;;;;;6.82;2.97;;;16.30;99.90;17.40;97712.00;;;;4797787;29;87255;-58
2022/04/26 13:40:12;;;;;;;5.20;3.03;;;16.20;99.90;17.40;97712.00;;;;4801510;29;87085;-57
2022/04/26 13:42:39;;;;;;;6.32;2.90;;;16.20;99.90;17.40;97720.00;;;;4800497;29;87354;-58
2022/04/26 13:45:09;;;;;;;6.28;2.90;;;16.10;99.90;17.40;97714.00;;;;4796651;29;88198;-59
2022/04/26 13:47:36;;;;;;;7.18;2.85;;;16.20;99.90;17.20;97702.00;;;;4795112;29;89548;-59
2022/04/26 13:50:06;;;;;;;9.15;3.20;;;16.00;99.90;17.20;97712.00;;;;4809275;29;87253;-59
2022/04/26 13:52:32;;;;;;;7.70;3.03;;;16.00;99.90;17.00;97711.00;;;;4795208;29;87017;-59
2022/04/26 13:54:58;;;;;;;8.18;2.47;;;15.80;99.90;17.00;97712.00;;;;4797409;29;88083;-59
2022/04/26 13:57:24;;;;;;;7.07;2.88;;;15.90;99.90;17.10;97718.00;;;;4791131;29;87456;-59
2022/04/26 13:59:51;;;;;;;8.73;2.70;;;15.90;99.90;17.10;97704.00;;;;4790526;29;87013;-60
2022/04/26 14:02:21;;;;;;;5.93;2.95;;;16.00;99.90;17.20;97708.00;;;;4798085;29;86976;-59
2022/04/26 14:04:50;;;;;;;8.57;2.75;;;16.00;99.90;17.20;97709.00;;;;4797114;29;87256;-59
2022/04/26 14:07:17;;;;;;;7.18;2.97;;;16.10;99.90;17.20;97704.00;;;;4805111;29;87625;-57
2022/04/26 14:09:44;;;;;;;5.00;2.70;;;16.00;99.90;17.10;97712.00;;;;4799244;29;88397;-59
2022/04/26 14:12:12;;;;;;;4.10;2.40;;;15.90;99.90;17.00;97711.00;;;;4797972;29;87153;-59
2022/04/26 14:22:53;;;;;;;4.65;2.65;;;15.70;99.90;16.70;97714.00;;;;4795580;29;87572;-58
2022/04/26 14:25:20;;;;;;;8.20;2.78;;;15.70;99.90;16.80;97713.00;;;;4792154;29;87261;-57
2022/04/26 14:27:49;;;;;;;4.53;2.90;;;15.70;99.90;16.90;97710.00;;;;4802884;29;87154;-58
2022/04/26 14:30:16;;;;;;;4.03;2.58;;;15.80;99.90;16.90;97717.00;;;;4800494;29;87477;-59
2022/04/26 14:32:44;;;;;;;8.68;2.45;;;15.80;99.90;16.90;97722.00;;;;4797475;29;87413;-58
2022/04/26 14:35:11;;;;;;;9.50;2.97;;;15.70;99.90;16.80;97720.00;;;;4795545;29;88496;-56
2022/04/26 14:37:38;;;;;;;7.70;2.85;;;15.70;99.90;16.70;97727.00;;;;4803526;29;89982;-59
2022/04/26 14:40:06;;;;;;;5.95;2.88;;;15.60;99.90;16.60;97724.00;;;;4796366;29;87019;-56
2022/04/26 14:42:32;;;;;;;6.03;2.92;;;15.50;99.90;16.50;97727.00;;;;4798534;29;87120;-58
2022/04/26 14:44:58;;;;;;;5.75;3.08;;;15.40;99.90;16.60;97722.00;;;;4799881;29;87444;-57
2022/04/26 14:47:27;;;;;;;6.32;2.33;;;15.50;99.90;16.60;97726.00;;;;4785001;29;87736;-59
2022/04/26 14:49:57;;;;;;;29.38;4.47;;;15.50;99.90;16.60;97723.00;;;;4809551;29;86925;-60
2022/04/26 14:52:24;;;;;;;4.75;2.78;;;15.50;99.90;16.50;97729.00;;;;4794895;29;86891;-59
2022/04/26 14:54:52;;;;;;;11.05;3.67;;;15.40;99.90;16.50;97735.00;;;;4789307;29;87712;-58
2022/04/26 14:57:18;;;;;;;7.10;2.80;;;15.40;99.90;16.40;97733.00;;;;4786066;29;87412;-58
2022/04/26 14:59:48;;;;;;;4.93;2.40;;;15.30;99.90;16.20;97731.00;;;;4787273;29;88016;-59
2022/04/26 15:02:19;;;;;;;5.45;2.67;;;15.20;99.90;16.20;97731.00;;;;4791366;29;87171;-57
2022/04/26 15:04:48;;;;;;;6.68;2.80;;;15.10;99.90;16.10;97735.00;;;;4791464;29;87593;-60
2022/04/26 15:07:14;;;;;;;8.32;2.70;;;15.10;99.90;16.10;97739.00;;;;4793029;29;87259;-57